Asahikawa Air Base, Japan

6:36 PM JST on February 06, 2016 (GMT +0900)
Asahikawa | | Change Station
CLOSE
Current Station
Airport
Location: Asahikawa Airport,
Elevation: 682 ft
Nearby Weather Stations

Elev 682 ft 43.67 °N, 142.45 °E | Updated 36 minutes ago

Scattered Clouds
Scattered Clouds
16 °F
Feels Like 9 °F
N
5
Wind Variable Wind from WSW

Today
High -- | Low -- °F
--% Chance of Precip.
Yesterday
High -- | Low -- °F
Precip. -- in
Pressure 29.86 in
Visibility 6.2 miles
Clouds Few 2000 ft
Scattered Clouds 4000 ft
Windchill 9 °F
Dew Point 7 °F
Humidity 68%
Rainfall 0.00 in
Snow Depth Not available.
6:42 AM 4:46 PM
Waning Crescent, 6% visible
METAR RJEC 060900Z 24004KT 210V270 9999 FEW020 SCT040 M09/M14 Q1011
Pressure 29.86 in
Visibility 6.2 miles
Clouds Few 2000 ft
Scattered Clouds 4000 ft
Windchill 9 °F
Dew Point 7 °F
Humidity 68%
Rainfall 0.00 in
Snow Depth Not available.
6:42 AM 4:46 PM
Waning Crescent, 6% visible
METAR RJEC 060900Z 24004KT 210V270 9999 FEW020 SCT040 M09/M14 Q1011

10-Day Weather Forecast

No radar image for this location.
×

Almanac

Astronomy

Feb. 06, 2016 Rise Set
Actual Time
Civil Twilight
Nautical Twilight
Astronomical Twilight
Moon
Length of Visible Light
Length of Day
Tomorrow will be .
, % of the Moon is Illuminated

Today's Extremes

Country Highs Country Lows

Community

WunderPhotos

Upload Photos

1,890,933 photos uploaded!

WunderBlog® & News

Nearby

Air Quality

  Air Quality AQ Index Pollutant
Not available.

Snow Depth

Station Depth Elevation

Earthquake Activity

City Distance Mag. Time & Date
Minimum magnitude displayed is 2.5.

Coastal Water Temperatures

Place Temperature

Stations

Nearby Weather Stations

Station Location Temp. Windchill Dew Point Humidity Wind Precip. Elev Updated Type